Time;durP1;ratioP1;P1;durP2;ratioP2;P2;SDS_P1;SDS_P2;PMS_P1;PMS_P2;Temp;Humidity;BMP_temperature;BMP_pressure;BME280_temperature;BME280_humidity;BME280_pressure;Samples;Min_cycle;Max_cycle;Signal;HPM_P1;HPM_P2
2024/02/09 00:01:56;;;;;;;;;;;;;;;8.60;59.50;97209.63;67858;1277;1015633;-69
2024/02/09 00:04:59;;;;;;;24.80;9.20;;;;;;;8.61;59.77;97199.73;67826;1262;1016162;-69
2024/02/09 00:08:04;;;;;;;21.80;7.70;;;;;;;8.64;59.86;97204.92;67872;1277;1017055;-69
2024/02/09 00:11:11;;;;;;;23.90;8.00;;;;;;;8.74;59.40;97198.04;67801;1277;1016455;-69
2024/02/09 00:14:15;;;;;;;22.90;7.80;;;;;;;8.73;59.28;97203.73;67836;1277;1016488;-68
2024/02/09 00:17:18;;;;;;;22.40;7.30;;;;;;;8.74;59.90;97206.77;67830;1277;1017031;-68
2024/02/09 00:20:21;;;;;;;23.90;8.10;;;;;;;8.68;59.39;97202.70;67859;1277;1016503;-68
2024/02/09 00:23:23;;;;;;;24.60;8.70;;;;;;;8.73;59.15;97204.88;67836;1277;1015956;-69
2024/02/09 00:26:26;;;;;;;24.50;8.10;;;;;;;8.75;59.04;97198.15;67851;1277;1016495;-67
2024/02/09 00:29:28;;;;;;;26.80;8.60;;;;;;;8.74;59.28;97197.55;67854;1277;1016315;-68
2024/02/09 00:32:31;;;;;;;;;;;;;;;8.79;59.41;97196.41;67883;1277;1016415;-69
2024/02/09 00:35:35;;;;;;;;;;;;;;;8.93;59.28;97198.77;67819;1277;1018822;-69
2024/02/09 00:38:39;;;;;;;24.30;7.20;;;;;;;9.01;59.06;97201.27;67807;1277;1018083;-68
2024/02/09 00:41:42;;;;;;;23.00;7.10;;;;;;;8.98;59.08;97199.13;67849;1277;1016424;-69
2024/02/09 00:44:44;;;;;;;;;;;;;;;8.94;59.02;97195.20;67870;1277;1017004;-69
2024/02/09 00:47:47;;;;;;;23.50;7.50;;;;;;;8.85;59.33;97195.83;67868;1277;1016429;-66
2024/02/09 00:50:51;;;;;;;23.90;7.40;;;;;;;8.82;59.52;97190.42;67813;1277;1016440;-67
2024/02/09 00:53:54;;;;;;;22.90;6.60;;;;;;;8.83;59.35;97189.50;67797;1277;1016420;-68
2024/02/09 00:56:56;;;;;;;22.20;6.70;;;;;;;8.74;59.23;97190.55;67821;1277;1016066;-67
2024/02/09 00:59:58;;;;;;;21.10;7.00;;;;;;;8.68;59.62;97188.06;67842;1277;1016488;-68
2024/02/09 01:03:02;;;;;;;29.60;9.40;;;;;;;8.70;59.93;97180.73;67873;1277;1016228;-67
2024/02/09 01:06:06;;;;;;;24.50;7.70;;;;;;;8.95;59.63;97187.71;67829;1277;1016191;-66
2024/02/09 01:09:09;;;;;;;26.70;9.00;;;;;;;9.11;59.24;97185.36;67867;1277;1016195;-69
2024/02/09 02:45:12;;;;;;;27.80;10.70;;;;;;;8.95;59.35;97132.61;67873;1277;1018608;-65
2024/02/09 03:04:55;;;;;;;31.40;11.40;;;;;;;8.52;60.03;97118.77;67829;1277;1016482;-66
2024/02/09 03:07:58;;;;;;;30.20;11.60;;;;;;;8.58;59.72;97115.33;67839;1277;1016490;-69
2024/02/09 03:11:00;;;;;;;27.60;11.10;;;;;;;8.48;60.19;97113.33;67828;1277;1016297;-67
2024/02/09 03:14:05;;;;;;;;;;;;;;;8.64;59.87;97111.92;67837;1277;1016359;-69
2024/02/09 03:17:08;;;;;;;27.60;10.90;;;;;;;8.71;59.44;97115.01;67887;1277;1016293;-68
2024/02/09 03:20:11;;;;;;;31.80;11.80;;;;;;;8.74;59.73;97110.23;67859;1277;1016281;-65
2024/02/09 03:23:17;;;;;;;31.00;11.90;;;;;;;8.75;59.45;97106.84;67841;1277;1019549;-66
2024/02/09 03:26:22;;;;;;;29.70;11.30;;;;;;;8.71;59.11;97110.42;67871;1277;1016418;-64
2024/02/09 03:29:30;;;;;;;29.60;11.40;;;;;;;8.72;59.18;97110.54;67840;1277;1016017;-65
2024/02/09 03:32:33;;;;;;;32.10;12.50;;;;;;;8.62;59.72;97109.98;67811;1277;1016258;-63
2024/02/09 03:35:36;;;;;;;31.80;11.20;;;;;;;8.67;59.36;97108.17;67873;1277;1016213;-66
2024/02/09 03:38:38;;;;;;;28.70;10.80;;;;;;;8.60;59.68;97110.27;67888;1277;1016720;-63
2024/02/09 03:41:41;;;;;;;25.50;9.50;;;;;;;8.56;59.55;97111.86;67823;1277;1016029;-67
2024/02/09 03:44:44;;;;;;;26.30;10.60;;;;;;;8.59;59.75;97112.81;67853;1277;1016214;-68
2024/02/09 03:47:47;;;;;;;26.00;10.00;;;;;;;8.61;59.81;97106.23;67823;1277;1016439;-66
2024/02/09 03:50:49;;;;;;;23.00;8.40;;;;;;;8.57;59.67;97108.77;67850;1276;1016478;-68
2024/02/09 03:53:52;;;;;;;27.40;8.40;;;;;;;8.66;59.33;97097.92;67870;1277;1016170;-68
2024/02/09 03:56:55;;;;;;;23.60;7.90;;;;;;;8.71;59.53;97094.30;67882;1277;1016494;-67
2024/02/09 03:59:58;;;;;;;23.60;7.70;;;;;;;8.73;59.47;97100.39;67860;1277;1016562;-67
2024/02/09 04:03:00;;;;;;;;;;;;;;;8.82;59.27;97101.91;67883;1277;1016359;-68
2024/02/09 04:06:03;;;;;;;23.60;8.00;;;;;;;8.85;59.11;97103.39;67835;1277;1016367;-68
2024/02/09 04:09:06;;;;;;;22.70;6.50;;;;;;;8.85;59.27;97105.98;67880;1277;1016296;-67
2024/02/09 04:12:10;;;;;;;;;;;;;;;8.79;59.38;97106.48;67880;1277;1016391;-65
2024/02/09 04:15:13;;;;;;;23.10;6.90;;;;;;;8.75;59.71;97106.48;67834;1277;1016473;-66
2024/02/09 04:18:15;;;;;;;24.00;6.50;;;;;;;8.88;59.30;97112.58;67868;1277;1016525;-68
2024/02/09 04:21:18;;;;;;;19.30;5.60;;;;;;;8.94;58.91;97115.92;67892;1277;1016552;-67
2024/02/09 04:24:23;;;;;;;19.10;5.50;;;;;;;9.03;58.94;97113.44;67880;1277;1016810;-68
2024/02/09 04:27:26;;;;;;;19.20;5.70;;;;;;;8.94;59.03;97114.02;67875;1277;1015894;-68
2024/02/09 04:30:28;;;;;;;17.40;4.80;;;;;;;8.83;59.32;97109.52;67898;1277;1018777;-66
2024/02/09 04:33:33;;;;;;;16.80;4.60;;;;;;;8.78;59.41;97103.60;67844;1277;1016116;-68
2024/02/09 04:36:36;;;;;;;16.80;5.00;;;;;;;8.79;59.49;97100.37;67866;1277;1015768;-67
2024/02/09 04:39:38;;;;;;;15.50;4.30;;;;;;;8.79;59.23;97101.23;67894;1277;1016340;-66
2024/02/09 04:42:41;;;;;;;;;;;;;;;8.81;59.43;97102.69;67824;1277;1016244;-67
2024/02/09 04:45:45;;;;;;;15.60;4.00;;;;;;;8.83;59.19;97097.62;67848;1277;1016378;-67
2024/02/09 04:48:48;;;;;;;14.30;3.60;;;;;;;8.80;59.48;97102.08;67838;1277;1016478;-66
2024/02/09 04:51:50;;;;;;;14.50;3.40;;;;;;;8.72;59.16;97097.66;67872;1277;1016259;-68
2024/02/09 04:54:53;;;;;;;;;;;;;;;8.68;59.28;97096.08;67897;1277;1016975;-68
2024/02/09 04:57:55;;;;;;;17.20;4.00;;;;;;;8.68;59.25;97093.58;67823;1277;1015794;-66
2024/02/09 05:00:59;;;;;;;21.30;5.00;;;;;;;8.65;59.58;97091.80;67833;1277;1016420;-68
2024/02/09 05:04:02;;;;;;;12.30;3.60;;;;;;;8.62;59.31;97086.59;67819;1277;1016354;-67
2024/02/09 05:07:05;;;;;;;;;;;;;;;8.58;59.57;97089.75;67873;1277;1016424;-67
2024/02/09 05:10:07;;;;;;;11.30;3.60;;;;;;;8.50;59.67;97094.23;67853;1277;1016796;-68
2024/02/09 05:13:10;;;;;;;11.10;3.30;;;;;;;8.44;59.95;97093.65;67860;1277;1016436;-66
2024/02/09 05:16:13;;;;;;;13.50;3.30;;;;;;;8.34;60.06;97094.00;67864;1277;1016322;-68
2024/02/09 05:19:15;;;;;;;11.50;3.10;;;;;;;8.41;59.75;97087.23;67882;1277;1016456;-68
2024/02/09 05:22:18;;;;;;;13.80;3.90;;;;;;;8.36;59.89;97082.19;67815;1277;1016375;-67
2024/02/09 05:25:22;;;;;;;;;;;;;;;8.41;59.85;97083.05;67875;1277;1016385;-66
2024/02/09 05:28:24;;;;;;;9.20;2.90;;;;;;;8.58;59.59;97082.55;67867;1277;1016316;-68
2024/02/09 05:31:27;;;;;;;;;;;;;;;8.59;59.24;97076.55;67889;1277;1016175;-68
2024/02/09 05:34:30;;;;;;;11.30;2.80;;;;;;;8.53;59.41;97077.43;67882;1277;1016090;-68
2024/02/09 05:37:32;;;;;;;8.60;2.80;;;;;;;8.60;59.37;97076.66;67827;1277;1017462;-64
2024/02/09 05:40:35;;;;;;;6.70;2.50;;;;;;;8.45;59.61;97071.38;67885;1277;1018680;-68
2024/02/09 05:43:37;;;;;;;10.90;2.80;;;;;;;8.35;59.85;97070.79;67870;1277;1016243;-68
2024/02/09 05:46:40;;;;;;;10.60;2.90;;;;;;;8.32;60.26;97071.55;67854;1277;1016401;-68
2024/02/09 05:49:42;;;;;;;9.70;2.60;;;;;;;8.29;60.60;97070.58;67824;1277;1017476;-68
2024/02/09 05:52:45;;;;;;;;;;;;;;;8.33;60.41;97070.04;67858;1277;1016451;-66
2024/02/09 05:55:47;;;;;;;11.20;3.00;;;;;;;8.42;59.93;97068.68;67890;1277;1016471;-68
2024/02/09 05:58:51;;;;;;;12.10;2.80;;;;;;;8.42;59.99;97072.99;67875;1277;1016018;-67
2024/02/09 06:01:54;;;;;;;7.00;2.60;;;;;;;8.54;59.80;97072.81;67872;1277;1016442;-68
2024/02/09 06:04:56;;;;;;;10.40;3.10;;;;;;;8.47;59.97;97069.69;67853;1277;1016870;-66
2024/02/09 06:08:00;;;;;;;5.80;2.20;;;;;;;8.47;59.89;97071.45;67834;1277;1016472;-66
2024/02/09 06:11:03;;;;;;;6.90;2.30;;;;;;;8.50;59.99;97070.70;67826;1277;1017180;-68
2024/02/09 06:14:08;;;;;;;5.90;2.30;;;;;;;8.47;59.71;97069.84;67867;1277;1016301;-67
2024/02/09 06:17:13;;;;;;;6.20;2.30;;;;;;;8.48;60.00;97071.69;67849;1277;1017177;-68
2024/02/09 06:20:19;;;;;;;9.70;2.70;;;;;;;8.56;59.75;97064.28;67859;1277;1016414;-68
2024/02/09 06:23:23;;;;;;;9.40;2.70;;;;;;;8.49;59.79;97064.63;67857;1277;1016147;-68
2024/02/09 06:26:26;;;;;;;10.80;2.90;;;;;;;8.48;59.96;97064.17;67864;1277;1017085;-68
2024/02/09 06:29:29;;;;;;;;;;;;;;;8.38;59.93;97066.84;67856;1277;1016294;-68
2024/02/09 06:32:31;;;;;;;4.10;1.80;;;;;;;8.37;60.17;97064.52;67842;1277;1015966;-68
2024/02/09 06:35:34;;;;;;;5.50;2.30;;;;;;;8.39;60.25;97072.08;67861;1277;1016462;-68
2024/02/09 06:38:37;;;;;;;7.70;2.70;;;;;;;8.51;60.11;97076.66;67831;1277;1016469;-68
2024/02/09 06:41:39;;;;;;;9.10;2.60;;;;;;;8.54;60.04;97071.72;67855;1277;1016494;-68
2024/02/09 06:44:44;;;;;;;8.60;2.30;;;;;;;8.40;60.53;97072.64;67904;1277;1016503;-67
2024/02/09 06:47:47;;;;;;;11.90;2.60;;;;;;;8.43;60.52;97075.71;67832;1277;1018693;-68
2024/02/09 06:50:49;;;;;;;7.00;2.30;;;;;;;8.33;60.74;97083.15;67832;1277;1016379;-69
2024/02/09 06:53:55;;;;;;;;;;;;;;;8.37;60.51;97082.83;67883;1277;1016371;-68
2024/02/09 06:56:57;;;;;;;7.50;2.20;;;;;;;8.47;60.50;97082.94;67820;1277;1016075;-66
2024/02/09 07:00:01;;;;;;;4.20;2.10;;;;;;;8.37;61.03;97081.40;67837;1277;1016321;-67
2024/02/09 07:17:56;;;;;;;9.10;2.80;;;;;;;4.72;100.00;97087.29;131126;1318;558588;-73
2024/02/09 07:20:58;;;;;;;8.60;2.80;;;;;;;5.67;100.00;97075.23;130880;1286;5317131;-69
2024/02/09 07:24:02;;;;;;;10.10;2.90;;;;;;;5.41;100.00;97071.98;134923;1286;22529;-69
2024/02/09 07:27:04;;;;;;;5.80;2.60;;;;;;;5.14;100.00;97072.21;135146;1284;22547;-72
2024/02/09 07:30:07;;;;;;;10.50;3.00;;;;;;;5.01;100.00;97071.36;135312;1281;22640;-70
2024/02/09 07:58:30;;;;;;;12.60;2.60;;;;;;;4.95;100.00;97077.83;131154;1318;558041;-71
2024/02/09 08:01:32;;;;;;;8.80;2.50;;;;;;;5.49;100.00;97074.23;130629;1290;5317643;-70
2024/02/09 08:04:36;;;;;;;8.30;2.60;;;;;;;5.35;100.00;97073.76;134690;1290;24445;-70
2024/02/09 08:07:41;;;;;;;9.30;2.80;;;;;;;5.32;100.00;97073.43;134673;1290;22664;-69
2024/02/09 08:10:43;;;;;;;6.40;2.30;;;;;;;5.45;100.00;97068.27;134815;1269;22550;-70
2024/02/09 08:13:48;;;;;;;;;;;;;;;5.45;100.00;97063.08;134857;1287;22524;-73
2024/02/09 08:16:50;;;;;;;7.10;2.10;;;;;;;5.45;100.00;97063.21;134866;1287;22539;-71
2024/02/09 08:19:53;;;;;;;9.80;2.60;;;;;;;5.39;100.00;97061.36;134839;1287;22578;-64
2024/02/09 08:22:55;;;;;;;;;;;;;;;5.45;100.00;97065.45;134843;1287;22645;-70
2024/02/09 08:25:58;;;;;;;7.40;2.60;;;;;;;5.62;100.00;97059.46;134776;1287;22557;-72
2024/02/09 08:29:00;;;;;;;7.30;2.50;;;;;;;5.53;100.00;97065.61;134826;1287;22558;-61
2024/02/09 08:32:04;;;;;;;10.40;3.00;;;;;;;5.42;100.00;97065.17;134828;1287;22582;-68
2024/02/09 08:35:07;;;;;;;8.70;2.70;;;;;;;5.33;100.00;97074.44;134794;1287;24369;-70
2024/02/09 08:38:09;;;;;;;9.70;3.00;;;;;;;5.45;100.00;97071.05;134857;1268;22592;-68
2024/02/09 08:41:12;;;;;;;8.60;2.80;;;;;;;5.56;100.00;97068.54;134854;1287;22589;-69
2024/02/09 08:44:14;;;;;;;;;;;;;;;5.62;100.00;97063.61;134856;1287;22516;-69
2024/02/09 08:47:17;;;;;;;6.90;2.30;;;;;;;5.74;100.00;97062.77;134835;1287;22549;-69
2024/02/09 08:50:19;;;;;;;10.30;2.70;;;;;;;5.68;100.00;97063.71;134821;1287;23137;-66
2024/02/09 08:53:22;;;;;;;;;;;;;;;5.74;100.00;97062.27;134851;1287;22643;-66
2024/02/09 08:56:25;;;;;;;6.70;2.40;;;;;;;5.72;100.00;97054.27;134659;1287;24391;-67
2024/02/09 08:59:27;;;;;;;;;;;;;;;5.89;100.00;97048.42;134653;1288;22520;-64
2024/02/09 09:02:30;;;;;;;8.50;2.50;;;;;;;5.74;100.00;97051.20;134860;1288;22552;-68
2024/02/09 09:05:32;;;;;;;;;;;;;;;5.79;100.00;97051.16;134841;1271;22543;-71
2024/02/09 09:08:35;;;;;;;11.00;3.00;;;;;;;5.81;100.00;97053.96;134823;1288;24383;-71
2024/02/09 09:11:37;;;;;;;8.40;2.90;;;;;;;5.62;100.00;97048.85;134853;1288;22559;-73
2024/02/09 09:14:40;;;;;;;11.10;3.30;;;;;;;5.56;100.00;97050.71;134776;1288;22569;-66
2024/02/09 09:17:43;;;;;;;11.80;3.70;;;;;;;5.46;100.00;97045.10;134838;1288;22679;-70
2024/02/09 09:20:45;;;;;;;;;;;;;;;5.47;100.00;97048.52;134834;1288;22532;-70
2024/02/09 09:23:48;;;;;;;10.90;3.60;;;;;;;5.60;100.00;97051.47;134805;1288;24016;-69
2024/02/09 09:26:50;;;;;;;;;;;;;;;5.78;100.00;97050.37;134875;1288;22525;-69
2024/02/09 09:29:53;;;;;;;12.40;3.90;;;;;;;5.95;100.00;97051.30;134817;1288;22551;-70
2024/02/09 09:32:57;;;;;;;15.60;4.60;;;;;;;5.88;100.00;97046.58;134829;1288;24404;-73
2024/02/09 09:36:01;;;;;;;13.20;4.50;;;;;;;5.96;100.00;97046.02;134837;1288;22570;-74
2024/02/09 09:39:05;;;;;;;24.60;10.70;;;;;;;6.13;99.99;97045.50;134789;1288;22556;-62
2024/02/09 09:42:09;;;;;;;22.90;9.40;;;;;;;6.31;99.38;97045.64;134826;1288;22553;-73
2024/02/09 09:45:12;;;;;;;14.90;4.90;;;;;;;6.55;97.94;97041.65;134841;1288;22549;-70
2024/02/09 09:48:15;;;;;;;15.00;4.40;;;;;;;6.77;97.79;97040.55;134816;1288;22555;-71
2024/02/09 09:51:17;;;;;;;19.00;5.60;;;;;;;7.03;96.76;97044.04;134835;1270;24370;-68
2024/02/09 09:54:20;;;;;;;17.30;5.30;;;;;;;7.35;93.98;97035.36;134820;1288;22572;-70
2024/02/09 09:57:23;;;;;;;17.20;5.10;;;;;;;7.44;92.33;97033.95;134822;1288;22556;-66
2024/02/09 10:00:26;;;;;;;24.00;8.70;;;;;;;7.41;92.85;97027.12;134833;1270;22565;-71
2024/02/09 10:03:29;;;;;;;21.40;7.60;;;;;;;7.38;93.71;97027.80;134778;1288;22552;-74
2024/02/09 10:06:32;;;;;;;21.40;7.40;;;;;;;7.36;94.34;97024.84;134801;1288;22543;-71
2024/02/09 10:09:34;;;;;;;20.10;5.80;;;;;;;7.51;93.94;97028.24;134857;1288;22573;-72
2024/02/09 10:12:37;;;;;;;19.40;6.30;;;;;;;7.46;93.41;97026.55;134815;1288;22568;-72
2024/02/09 10:15:41;;;;;;;19.90;6.10;;;;;;;7.35;94.40;97024.62;134786;1288;22548;-72
2024/02/09 10:18:43;;;;;;;21.20;7.20;;;;;;;7.43;93.24;97028.36;134815;1288;22559;-71
2024/02/09 10:21:47;;;;;;;21.50;6.80;;;;;;;7.32;93.51;97027.75;134826;1288;22568;-72
2024/02/09 10:24:49;;;;;;;19.90;7.30;;;;;;;7.28;93.25;97028.40;135095;1283;22538;-74
2024/02/09 10:27:52;;;;;;;23.30;7.90;;;;;;;7.19;93.45;97027.05;134995;1283;22556;-72
2024/02/09 10:30:54;;;;;;;29.00;10.30;;;;;;;7.10;94.26;97025.77;135115;1283;22532;-72
2024/02/09 10:33:57;;;;;;;25.60;9.30;;;;;;;7.10;94.09;97025.60;135102;1283;22642;-71
2024/02/09 10:37:01;;;;;;;;;;;;;;;7.06;93.80;97020.23;135110;1283;22548;-75
2024/02/09 10:40:05;;;;;;;30.70;11.10;;;;;;;6.92;94.68;97017.58;135120;1264;22554;-69
2024/02/09 10:43:08;;;;;;;30.10;12.20;;;;;;;6.88;94.82;97014.08;135095;1264;22645;-75
2024/02/09 10:46:11;;;;;;;;;;;;;;;6.82;95.11;97006.00;135142;1283;22542;-73
2024/02/09 10:49:13;;;;;;;28.50;11.20;;;;;;;6.73;95.13;97002.30;135103;1283;24380;-71
2024/02/09 10:52:17;;;;;;;;;;;;;;;6.63;95.32;97001.98;135036;1283;22520;-72
2024/02/09 10:55:20;;;;;;;25.20;10.30;;;;;;;6.50;96.21;97008.02;135107;1283;24215;-74
2024/02/09 10:58:22;;;;;;;29.40;10.90;;;;;;;6.39;96.88;97001.13;135109;1283;23828;-69
2024/02/09 11:01:25;;;;;;;;;;;;;;;6.33;97.09;96999.65;135087;1283;22539;-71
2024/02/09 11:04:27;;;;;;;25.10;9.90;;;;;;;6.26;97.83;96996.36;135117;1280;22565;-68
2024/02/09 11:07:30;;;;;;;27.10;10.40;;;;;;;6.39;97.07;96992.98;135096;1283;22572;-70
2024/02/09 11:10:33;;;;;;;;;;;;;;;6.47;96.64;96986.88;135113;1265;22944;-68
2024/02/09 11:13:36;;;;;;;24.30;8.80;;;;;;;6.50;96.99;96980.19;135116;1283;22618;-71
2024/02/09 11:16:38;;;;;;;25.30;10.10;;;;;;;6.46;97.53;96970.94;135108;1283;23950;-74
2024/02/09 11:19:41;;;;;;;;;;;;;;;6.53;98.44;96971.84;135123;1264;22521;-71
2024/02/09 11:22:43;;;;;;;24.10;9.10;;;;;;;6.66;97.55;96967.90;135121;1283;22680;-72
2024/02/09 11:25:46;;;;;;;;;;;;;;;6.70;97.45;96965.14;135130;1283;22470;-73
2024/02/09 11:28:48;;;;;;;24.60;9.30;;;;;;;6.79;96.94;96958.95;135132;1283;22535;-72
2024/02/09 11:31:51;;;;;;;;;;;;;;;6.75;97.59;96957.68;135131;1283;22524;-74
2024/02/09 11:34:54;;;;;;;26.00;9.10;;;;;;;6.80;97.34;96957.98;135127;1283;22567;-64
2024/02/09 11:37:57;;;;;;;26.40;10.30;;;;;;;6.90;97.06;96952.39;135009;1283;22580;-72
2024/02/09 11:40:59;;;;;;;24.90;8.90;;;;;;;7.08;97.02;96956.79;135109;1283;22545;-74
2024/02/09 11:44:02;;;;;;;27.10;10.00;;;;;;;7.12;96.33;96955.09;135100;1283;22535;-71
2024/02/09 11:47:04;;;;;;;;;;;;;;;7.23;95.42;96954.73;135137;1283;22526;-70
2024/02/09 11:50:07;;;;;;;24.20;9.70;;;;;;;7.26;96.65;96945.65;135133;1283;24205;-72
2024/02/09 11:53:10;;;;;;;25.50;9.30;;;;;;;7.49;96.24;96941.29;135102;1283;22554;-73
2024/02/09 11:56:13;;;;;;;32.20;16.60;;;;;;;7.77;94.79;96933.05;135109;1265;22692;-70
2024/02/09 11:59:15;;;;;;;;;;;;;;;7.74;94.78;96931.80;135127;1283;24482;-74
2024/02/09 12:02:18;;;;;;;24.30;9.50;;;;;;;7.93;94.68;96933.14;135133;1283;22612;-70
2024/02/09 12:05:20;;;;;;;;;;;;;;;8.05;94.97;96936.34;135150;1283;22520;-74
2024/02/09 12:08:23;;;;;;;26.30;9.30;;;;;;;8.11;94.22;96929.38;135115;1283;22554;-64
2024/02/09 12:11:25;;;;;;;;;;;;;;;8.25;93.19;96915.53;135109;1283;22536;-72
2024/02/09 12:14:28;;;;;;;25.50;9.90;;;;;;;8.39;91.44;96915.96;135109;1283;22600;-73
2024/02/09 12:17:31;;;;;;;;;;;;;;;8.33;90.47;96916.16;135133;1283;22528;-74
2024/02/09 12:20:33;;;;;;;28.90;10.00;;;;;;;8.04;92.14;96916.71;135091;1283;24209;-70
2024/02/09 12:23:36;;;;;;;27.00;10.90;;;;;;;8.20;90.59;96912.27;135086;1283;22561;-71
2024/02/09 12:26:38;;;;;;;26.60;9.80;;;;;;;8.22;90.23;96909.32;135124;1265;22558;-69
2024/02/09 12:29:41;;;;;;;24.40;10.00;;;;;;;8.30;89.43;96911.47;135164;1283;22542;-70
2024/02/09 12:32:44;;;;;;;;;;;;;;;8.29;89.33;96906.73;135122;1283;22640;-67
2024/02/09 12:35:46;;;;;;;27.40;10.50;;;;;;;8.19;90.29;96905.60;135119;1283;22546;-60
2024/02/09 12:38:49;;;;;;;;;;;;;;;8.17;91.13;96906.63;135138;1283;22654;-72
2024/02/09 12:41:51;;;;;;;30.30;11.30;;;;;;;8.25;90.94;96903.39;135078;1283;22570;-71
2024/02/09 12:44:55;;;;;;;28.50;11.30;;;;;;;8.30;90.37;96896.48;135129;1283;22526;-68
2024/02/09 12:47:58;;;;;;;29.30;12.30;;;;;;;8.33;90.00;96903.27;135058;1283;22546;-71
2024/02/09 12:51:04;;;;;;;26.80;11.70;;;;;;;8.39;88.62;96896.85;135139;1283;22783;-72
2024/02/09 12:54:09;;;;;;;27.30;11.10;;;;;;;8.25;88.77;96904.20;135128;1283;22539;-67
2024/02/09 12:57:12;;;;;;;28.30;11.10;;;;;;;8.01;89.66;96911.20;135142;1265;22571;-64
2024/02/09 13:00:14;;;;;;;;;;;;;;;7.95;90.54;96914.15;135180;1282;25252;-64
2024/02/09 13:03:17;;;;;;;27.00;11.60;;;;;;;8.02;89.94;96913.89;135334;1281;22536;-71
2024/02/09 13:06:19;;;;;;;;;;;;;;;7.96;90.62;96913.01;135304;1281;22499;-72
2024/02/09 13:09:22;;;;;;;29.60;12.50;;;;;;;7.92;91.96;96911.24;135335;1281;22582;-64
2024/02/09 13:12:24;;;;;;;29.60;12.20;;;;;;;7.92;91.96;96907.27;135290;1280;24188;-68
2024/02/09 13:15:28;;;;;;;;;;;;;;;7.98;92.12;96904.20;135321;1281;22518;-68
2024/02/09 13:18:32;;;;;;;30.80;13.50;;;;;;;8.02;92.01;96894.13;135308;1281;22538;-70
2024/02/09 13:21:34;;;;;;;31.30;13.70;;;;;;;7.97;91.07;96896.27;135329;1281;22555;-67
2024/02/09 13:24:39;;;;;;;;;;;;;;;7.60;94.06;96897.95;135322;1281;22603;-62
2024/02/09 13:27:42;;;;;;;31.10;13.80;;;;;;;7.47;95.10;96895.70;135302;1281;25601;-68
2024/02/09 13:30:44;;;;;;;30.60;12.70;;;;;;;7.43;96.27;96894.48;135297;1281;22558;-67
2024/02/09 13:33:47;;;;;;;33.00;13.00;;;;;;;7.48;96.25;96892.11;135339;1281;22543;-71
2024/02/09 13:36:49;;;;;;;;;;;;;;;7.57;95.90;96897.29;135308;1281;22550;-71
2024/02/09 13:39:53;;;;;;;31.90;13.50;;;;;;;7.72;94.80;96891.79;135613;1279;22668;-71
2024/02/09 13:42:56;;;;;;;30.50;12.60;;;;;;;7.74;94.63;96885.01;135594;1279;22532;-69
2024/02/09 13:45:58;;;;;;;33.10;13.80;;;;;;;7.75;94.71;96885.63;135613;1279;22631;-70
2024/02/09 13:49:01;;;;;;;33.10;14.30;;;;;;;7.33;97.91;96887.61;135588;1279;22549;-69
2024/02/09 13:52:04;;;;;;;;;;;;;;;7.64;95.64;96890.16;135601;1279;24655;-66
2024/02/09 13:55:06;;;;;;;32.60;13.90;;;;;;;7.67;95.56;96889.45;135622;1260;22543;-70
2024/02/09 13:58:11;;;;;;;;;;;;;;;7.57;95.47;96888.30;135615;1279;22515;-70
2024/02/09 14:01:14;;;;;;;35.30;14.40;;;;;;;7.55;95.31;96883.36;135610;1279;22645;-68
2024/02/09 14:04:16;;;;;;;34.80;14.90;;;;;;;7.52;96.06;96879.81;135607;1279;25425;-64
2024/02/09 14:07:19;;;;;;;;;;;;;;;7.49;95.95;96873.48;135625;1279;22551;-71
2024/02/09 14:10:21;;;;;;;36.60;16.30;;;;;;;7.55;96.08;96867.40;135622;1279;25419;-70
2024/02/09 14:13:24;;;;;;;39.70;17.70;;;;;;;7.57;95.46;96868.43;135601;1279;22532;-65
2024/02/09 14:16:27;;;;;;;;;;;;;;;7.51;96.00;96876.05;135593;1279;22916;-70
2024/02/09 14:19:31;;;;;;;40.10;17.10;;;;;;;7.52;96.07;96883.30;135615;1279;22688;-72
2024/02/09 14:22:34;;;;;;;37.50;17.00;;;;;;;7.36;97.03;96884.89;135593;1262;22567;-70
2024/02/09 14:25:38;;;;;;;42.50;18.00;;;;;;;7.28;96.77;96889.30;135579;1267;24217;-71
2024/02/09 14:28:40;;;;;;;40.90;18.70;;;;;;;7.18;98.57;96885.93;135560;1279;22565;-69
2024/02/09 14:31:43;;;;;;;43.60;19.40;;;;;;;7.28;97.78;96881.00;135604;1279;22562;-74
2024/02/09 14:34:45;;;;;;;38.50;17.90;;;;;;;7.24;98.17;96881.81;135596;1279;22609;-71
2024/02/09 14:37:49;;;;;;;43.70;18.70;;;;;;;7.11;98.93;96883.58;135527;1279;22536;-70
2024/02/09 14:40:52;;;;;;;44.10;20.30;;;;;;;6.77;100.00;96883.00;135574;1279;22651;-73
2024/02/09 14:43:55;;;;;;;43.60;20.40;;;;;;;6.78;100.00;96881.55;135586;1279;24383;-71
2024/02/09 14:46:57;;;;;;;47.30;20.70;;;;;;;6.77;100.00;96881.24;135600;1279;23895;-70
2024/02/09 14:50:00;;;;;;;;;;;;;;;6.71;100.00;96879.98;135604;1279;22545;-71
2024/02/09 14:53:03;;;;;;;47.10;21.30;;;;;;;6.65;100.00;96877.86;135604;1279;22531;-74
2024/02/09 14:56:07;;;;;;;46.20;20.90;;;;;;;6.59;100.00;96877.39;135578;1279;22666;-70
2024/02/09 14:59:09;;;;;;;51.30;23.00;;;;;;;6.55;100.00;96868.86;135602;1279;22676;-72
2024/02/09 15:02:12;;;;;;;;;;;;;;;6.60;100.00;96867.79;135612;1279;22505;-72
2024/02/09 15:05:14;;;;;;;50.50;21.50;;;;;;;6.71;100.00;96862.27;135556;1279;26555;-72
2024/02/09 15:08:17;;;;;;;49.80;21.80;;;;;;;6.69;100.00;96861.92;135546;1279;22651;-71
2024/02/09 15:11:20;;;;;;;48.90;22.00;;;;;;;6.61;100.00;96862.66;135604;1279;22544;-74
2024/02/09 15:14:23;;;;;;;49.70;23.20;;;;;;;6.54;100.00;96863.24;135597;1279;22559;-68
2024/02/09 15:17:25;;;;;;;50.00;23.50;;;;;;;6.57;100.00;96865.77;135594;1279;22539;-65
2024/02/09 15:20:28;;;;;;;;;;;;;;;6.67;100.00;96864.85;135641;1279;25442;-71
2024/02/09 15:23:31;;;;;;;51.70;24.10;;;;;;;6.66;100.00;96863.90;135618;1279;22695;-71
2024/02/09 15:26:35;;;;;;;54.80;24.90;;;;;;;6.67;100.00;96861.40;135585;1262;22539;-71
2024/02/09 15:29:38;;;;;;;59.00;25.70;;;;;;;6.70;100.00;96862.73;135607;1279;24263;-70
2024/02/09 15:32:40;;;;;;;55.80;26.50;;;;;;;6.65;100.00;96865.51;135580;1279;25243;-71
2024/02/09 15:35:43;;;;;;;;;;;;;;;6.61;100.00;96861.77;135621;1279;22509;-71
2024/02/09 15:38:45;;;;;;;59.30;27.20;;;;;;;6.73;100.00;96862.62;135577;1262;22543;-68
2024/02/09 15:41:48;;;;;;;55.30;25.70;;;;;;;6.84;100.00;96863.67;135604;1279;22536;-70
2024/02/09 15:44:52;;;;;;;56.00;26.80;;;;;;;6.73;100.00;96855.19;135583;1279;22569;-66
2024/02/09 15:47:55;;;;;;;54.70;25.70;;;;;;;6.73;100.00;96851.48;135588;1279;22532;-69
2024/02/09 15:50:58;;;;;;;68.10;31.00;;;;;;;6.72;100.00;96851.27;135654;1279;22555;-67
2024/02/09 15:54:01;;;;;;;74.80;32.60;;;;;;;6.80;100.00;96853.27;135581;1279;22540;-62
2024/02/09 15:57:05;;;;;;;67.70;31.70;;;;;;;6.70;100.00;96855.55;135600;1279;22532;-71
2024/02/09 16:00:08;;;;;;;63.10;28.40;;;;;;;6.75;100.00;96853.45;135631;1279;22648;-70
2024/02/09 16:03:11;;;;;;;59.90;28.20;;;;;;;6.75;100.00;96853.29;135535;1279;22569;-69
2024/02/09 16:06:13;;;;;;;66.80;30.30;;;;;;;6.68;100.00;96853.30;135559;1279;22559;-72
2024/02/09 16:09:17;;;;;;;61.70;29.40;;;;;;;6.67;100.00;96858.42;135604;1279;22536;-66
2024/02/09 16:12:20;;;;;;;59.00;27.30;;;;;;;6.64;100.00;96864.73;135619;1279;22529;-70
2024/02/09 16:15:22;;;;;;;59.50;29.40;;;;;;;6.59;100.00;96861.77;135601;1279;22547;-66
2024/02/09 16:18:26;;;;;;;61.40;27.60;;;;;;;6.67;100.00;96861.17;135648;1279;22651;-70
2024/02/09 16:21:30;;;;;;;56.80;26.60;;;;;;;6.61;100.00;96860.63;135590;1279;22544;-66
2024/02/09 16:24:33;;;;;;;57.20;28.90;;;;;;;6.83;100.00;96862.41;135602;1279;22536;-69
2024/02/09 16:27:36;;;;;;;59.90;29.20;;;;;;;6.60;100.00;96860.02;135590;1279;24388;-70
2024/02/09 16:30:39;;;;;;;;;;;;;;;6.50;100.00;96860.70;135674;1279;22517;-68
2024/02/09 16:33:42;;;;;;;60.80;29.50;;;;;;;6.58;100.00;96857.90;135609;1279;22591;-72
2024/02/09 16:36:45;;;;;;;66.40;31.30;;;;;;;6.46;100.00;96850.78;135543;1279;22677;-69
2024/02/09 16:39:50;;;;;;;;;;;;;;;6.44;100.00;96848.34;135631;1279;22546;-68
2024/02/09 16:42:53;;;;;;;69.50;32.80;;;;;;;6.55;100.00;96849.25;135585;1279;22551;-72
2024/02/09 16:45:56;;;;;;;66.50;30.70;;;;;;;6.60;100.00;96857.05;135633;1279;22538;-69
2024/02/09 16:48:59;;;;;;;;;;;;;;;6.50;100.00;96859.52;135568;1279;22518;-71